Time;durP1;ratioP1;P1;durP2;ratioP2;P2;SDS_P1;SDS_P2;PMS_P1;PMS_P2;Temp;Humidity;BMP_temperature;BMP_pressure;BME280_temperature;BME280_humidity;BME280_pressure;Samples;Min_cycle;Max_cycle;Signal;HPM_P1;HPM_P2
2023/04/06 00:02:04;;;;;;;;;;;;;;;;;;5048984;28;19931;-55
2023/04/06 00:04:30;;;;;;;;;;;;;;;;;;5049465;28;19927;-57
2023/04/06 00:06:56;;;;;;;;;;;;;;;;;;5049683;28;20280;-58
2023/04/06 00:09:22;;;;;;;;;;;;;;;;;;5048835;28;19948;-58
2023/04/06 00:11:48;;;;;;;;;;;;;;;;;;5049408;28;19920;-58
2023/04/06 00:14:15;;;;;;;;;;;;;;;;;;5049427;28;19917;-57
2023/04/06 00:16:41;;;;;;;;;;;;;;;;;;5049157;28;19921;-57
2023/04/06 00:19:07;;;;;;;;;;;;;;;;;;5049337;28;19921;-56
2023/04/06 00:21:33;;;;;;;;;;;;;;;;;;5049304;28;19920;-57
2023/04/06 00:23:59;;;;;;;;;;;;;;;;;;5048783;28;19927;-58
2023/04/06 00:26:25;;;;;;;;;;;;;;;;;;5030537;28;20018;-58
2023/04/06 00:28:52;;;;;;;;;;;;;;;;;;5049206;28;20378;-56
2023/04/06 00:31:18;;;;;;;;;;;;;;;;;;5049180;28;19927;-57
2023/04/06 00:33:44;;;;;;;;;;;;;;;;;;5048739;28;19926;-55
2023/04/06 00:36:10;;;;;;;;;;;;;;;;;;5049214;28;20386;-58
2023/04/06 00:38:36;;;;;;;;;;;;;;;;;;5049144;28;19951;-58
2023/04/06 00:41:02;;;;;;;;;;;;;;;;;;5048794;28;19917;-58
2023/04/06 00:43:27;;;;;;;;;;;;;;;;;;5049066;28;19917;-56
2023/04/06 00:45:53;;;;;;;;;;;;;;;;;;5049244;28;19987;-55
2023/04/06 00:48:19;;;;;;;;;;;;;;;;;;5048330;28;19920;-57
2023/04/06 00:50:45;;;;;;;;;;;;;;;;;;5049258;28;19929;-57
2023/04/06 00:53:11;;;;;;;;;;;;;;;;;;5049114;28;19916;-57
2023/04/06 00:55:37;;;;;;;;;;;;;;;;;;5048340;28;20445;-56
2023/04/06 00:58:03;;;;;;;;;;;;;;;;;;5052025;28;19924;-57
2023/04/06 01:00:30;;;;;;;;;;;;;;;;;;5052586;28;19924;-57
2023/04/06 01:02:56;;;;;;;;;;;;;;;;;;5051860;28;19970;-57
2023/04/06 01:05:22;;;;;;;;;;;;;;;;;;5052644;28;19925;-57
2023/04/06 01:07:47;;;;;;;;;;;;;;;;;;5052450;28;20365;-58
2023/04/06 01:10:13;;;;;;;;;;;;;;;;;;5051939;28;20023;-58
2023/04/06 01:12:39;;;;;;;;;;;;;;;;;;5052619;28;19916;-56
2023/04/06 01:15:06;;;;;;;;;;;;;;;;;;5052715;28;20390;-57
2023/04/06 01:17:32;;;;;;;;;;;;;;;;;;5051408;28;19931;-57
2023/04/06 01:19:57;;;;;;;;;;;;;;;;;;5052365;28;19917;-57
2023/04/06 01:22:23;;;;;;;;;;;;;;;;;;5051875;28;20517;-58
2023/04/06 01:24:49;;;;;;;;;;;;;;;;;;5051559;28;19917;-56
2023/04/06 01:27:15;;;;;;;;;;;;;;;;;;5052159;28;20375;-57
2023/04/06 01:29:42;;;;;;;;;;;;;;;;;;5052069;28;19917;-57
2023/04/06 01:32:08;;;;;;;;;;;;;;;;;;5051598;28;19966;-57
2023/04/06 01:34:34;;;;;;;;;;;;;;;;;;5052147;28;20404;-54
2023/04/06 01:37:00;;;;;;;;;;;;;;;;;;5052066;28;19921;-58
2023/04/06 01:39:26;;;;;;;;;;;;;;;;;;5051771;28;20402;-58
2023/04/06 01:41:52;;;;;;;;;;;;;;;;;;5051949;28;19921;-55
2023/04/06 01:44:18;;;;;;;;;;;;;;;;;;5051685;28;20456;-56
2023/04/06 01:46:45;;;;;;;;;;;;;;;;;;5051692;28;19921;-57
2023/04/06 01:49:11;;;;;;;;;;;;;;;;;;5051482;28;19928;-55
2023/04/06 01:51:37;;;;;;;;;;;;;;;;;;5051767;28;19917;-56
2023/04/06 01:54:03;;;;;;;;;;;;;;;;;;5051204;28;20378;-54
2023/04/06 01:56:29;;;;;;;;;;;;;;;;;;5051820;28;19923;-56
2023/04/06 01:58:55;;;;;;;;;;;;;;;;;;5051677;28;19924;-57
2023/04/06 02:01:21;;;;;;;;;;;;;;;;;;5050756;28;19920;-57
2023/04/06 02:03:47;;;;;;;;;;;;;;;;;;5051583;28;19927;-57
2023/04/06 02:06:13;;;;;;;;;;;;;;;;;;5051311;28;19925;-58
2023/04/06 02:08:39;;;;;;;;;;;;;;;;;;5049866;28;19924;-58
2023/04/06 02:11:05;;;;;;;;;;;;;;;;;;5051378;28;20347;-57
2023/04/06 02:13:31;;;;;;;;;;;;;;;;;;5051416;28;19943;-55
2023/04/06 02:15:57;;;;;;;;;;;;;;;;;;5050778;28;19939;-56
2023/04/06 02:18:23;;;;;;;;;;;;;;;;;;5051225;28;20406;-56
2023/04/06 02:20:48;;;;;;;;;;;;;;;;;;5051293;28;20072;-56
2023/04/06 02:23:14;;;;;;;;;;;;;;;;;;5050217;28;19924;-56
2023/04/06 02:25:41;;;;;;;;;;;;;;;;;;5050851;28;20007;-56
2023/04/06 02:28:06;;;;;;;;;;;;;;;;;;5050720;28;19920;-57
2023/04/06 02:30:32;;;;;;;;;;;;;;;;;;5050324;28;19979;-57
2023/04/06 02:32:58;;;;;;;;;;;;;;;;;;5051052;28;20003;-56
2023/04/06 02:35:24;;;;;;;;;;;;;;;;;;5050845;28;20389;-58
2023/04/06 02:37:50;;;;;;;;;;;;;;;;;;5050104;28;19970;-57
2023/04/06 02:40:16;;;;;;;;;;;;;;;;;;5050359;28;20271;-58
2023/04/06 02:42:42;;;;;;;;;;;;;;;;;;5050786;28;19932;-57
2023/04/06 02:45:08;;;;;;;;;;;;;;;;;;5050107;28;19944;-57
2023/04/06 02:47:34;;;;;;;;;;;;;;;;;;5050524;28;19960;-57
2023/04/06 02:50:00;;;;;;;;;;;;;;;;;;5050315;28;20019;-56
2023/04/06 02:52:26;;;;;;;;;;;;;;;;;;5049667;28;19931;-57
2023/04/06 02:54:52;;;;;;;;;;;;;;;;;;5050604;28;19974;-55
2023/04/06 02:57:17;;;;;;;;;;;;;;;;;;5050604;28;20370;-56
2023/04/06 02:59:43;;;;;;;;;;;;;;;;;;5049680;28;19940;-57
2023/04/06 03:02:10;;;;;;;;;;;;;;;;;;5050522;28;19963;-58
2023/04/06 03:04:35;;;;;;;;;;;;;;;;;;5050394;28;19917;-58
2023/04/06 03:07:01;;;;;;;;;;;;;;;;;;5049676;28;19928;-57
2023/04/06 03:09:27;;;;;;;;;;;;;;;;;;5050338;28;19916;-58
2023/04/06 03:11:53;;;;;;;;;;;;;;;;;;5050292;28;20025;-56
2023/04/06 03:14:21;;;;;;;;;;;;;;;;;;5049736;28;20019;-56
2023/04/06 03:16:47;;;;;;;;;;;;;;;;;;5050186;28;19927;-56
2023/04/06 03:19:13;;;;;;;;;;;;;;;;;;5050048;28;19971;-57
2023/04/06 03:21:39;;;;;;;;;;;;;;;;;;5049957;28;19921;-55
2023/04/06 03:24:05;;;;;;;;;;;;;;;;;;5049438;28;19948;-56
2023/04/06 03:26:31;;;;;;;;;;;;;;;;;;5050116;28;19917;-56
2023/04/06 03:28:57;;;;;;;;;;;;;;;;;;5050120;28;19963;-54
2023/04/06 03:31:23;;;;;;;;;;;;;;;;;;5049428;28;20367;-56
2023/04/06 03:33:49;;;;;;;;;;;;;;;;;;5050029;28;19979;-58
2023/04/06 03:36:15;;;;;;;;;;;;;;;;;;5049722;28;19998;-58
2023/04/06 03:38:41;;;;;;;;;;;;;;;;;;5049167;28;19920;-58
2023/04/06 03:41:06;;;;;;;;;;;;;;;;;;5049663;28;19921;-55
2023/04/06 03:43:32;;;;;;;;;;;;;;;;;;5049782;28;19921;-57
2023/04/06 03:45:58;;;;;;;;;;;;;;;;;;5049211;28;19916;-56
2023/04/06 03:48:24;;;;;;;;;;;;;;;;;;5049559;28;19921;-56
2023/04/06 03:50:50;;;;;;;;;;;;;;;;;;5049585;28;19970;-57
2023/04/06 03:53:16;;;;;;;;;;;;;;;;;;5049116;28;19930;-57
2023/04/06 03:55:42;;;;;;;;;;;;;;;;;;5049327;28;19917;-56
2023/04/06 03:58:08;;;;;;;;;;;;;;;;;;5049681;28;19928;-56
2023/04/06 04:00:34;;;;;;;;;;;;;;;;;;5048817;28;19928;-56
2023/04/06 04:03:01;;;;;;;;;;;;;;;;;;5049673;28;20359;-56
2023/04/06 04:05:27;;;;;;;;;;;;;;;;;;5049257;28;19924;-58
2023/04/06 04:07:53;;;;;;;;;;;;;;;;;;5048865;28;19924;-58
2023/04/06 04:10:19;;;;;;;;;;;;;;;;;;5049322;28;19921;-57
2023/04/06 04:12:45;;;;;;;;;;;;;;;;;;5049582;28;19982;-56
2023/04/06 04:15:11;;;;;;;;;;;;;;;;;;5049140;28;19927;-55
2023/04/06 04:17:37;;;;;;;;;;;;;;;;;;5049520;28;19920;-56
2023/04/06 04:20:02;;;;;;;;;;;;;;;;;;5049337;28;19921;-56
2023/04/06 04:22:28;;;;;;;;;;;;;;;;;;5048672;28;19924;-56
2023/04/06 04:24:54;;;;;;;;;;;;;;;;;;5049282;28;20275;-58
2023/04/06 04:27:20;;;;;;;;;;;;;;;;;;5049435;28;19924;-57
2023/04/06 04:29:46;;;;;;;;;;;;;;;;;;5048869;28;19920;-55
2023/04/06 04:32:12;;;;;;;;;;;;;;;;;;5050943;28;20404;-57
2023/04/06 04:34:41;;;;;;;;;;;;;;;;;;5053254;28;19966;-58
2023/04/06 04:37:07;;;;;;;;;;;;;;;;;;5052749;28;20394;-58
2023/04/06 04:39:33;;;;;;;;;;;;;;;;;;5054110;28;19925;-57
2023/04/06 04:41:59;;;;;;;;;;;;;;;;;;5055094;28;19966;-56
2023/04/06 04:44:25;;;;;;;;;;;;;;;;;;5054216;28;20007;-57
2023/04/06 04:46:51;;;;;;;;;;;;;;;;;;5055016;28;20011;-58
2023/04/06 04:49:17;;;;;;;;;;;;;;;;;;5054952;28;19963;-56
2023/04/06 04:51:43;;;;;;;;;;;;;;;;;;5053806;28;19928;-57
2023/04/06 04:54:09;;;;;;;;;;;;;;;;;;5054300;28;19943;-56
2023/04/06 04:56:34;;;;;;;;;;;;;;;;;;5054359;28;19928;-56
2023/04/06 04:59:00;;;;;;;;;;;;;;;;;;5053543;28;19916;-57
2023/04/06 05:01:26;;;;;;;;;;;;;;;;;;5054546;28;19923;-56
2023/04/06 05:03:52;;;;;;;;;;;;;;;;;;5053122;28;19925;-58
2023/04/06 05:06:21;;;;;;;;;;;;;;;;;;5053636;28;19966;-57
2023/04/06 05:08:47;;;;;;;;;;;;;;;;;;5054170;28;19955;-58
2023/04/06 05:11:13;;;;;;;;;;;;;;;;;;5054023;28;19948;-56
2023/04/06 05:13:39;;;;;;;;;;;;;;;;;;5053248;28;19921;-57
2023/04/06 05:16:05;;;;;;;;;;;;;;;;;;5054128;28;20023;-56
2023/04/06 05:18:31;;;;;;;;;;;;;;;;;;5054340;28;19920;-57
2023/04/06 05:20:57;;;;;;;;;;;;;;;;;;5053339;28;19917;-57
2023/04/06 05:23:23;;;;;;;;;;;;;;;;;;5053924;28;19929;-54
2023/04/06 05:25:49;;;;;;;;;;;;;;;;;;5053816;28;19916;-57
2023/04/06 05:28:15;;;;;;;;;;;;;;;;;;5053073;28;19943;-56
2023/04/06 05:30:41;;;;;;;;;;;;;;;;;;5053667;28;19920;-57
2023/04/06 05:33:07;;;;;;;;;;;;;;;;;;5053843;28;19927;-58
2023/04/06 05:35:33;;;;;;;;;;;;;;;;;;5053416;28;19990;-58
2023/04/06 05:38:00;;;;;;;;;;;;;;;;;;5052557;28;19969;-59
2023/04/06 05:40:25;;;;;;;;;;;;;;;;;;5052884;28;19925;-58
2023/04/06 05:42:51;;;;;;;;;;;;;;;;;;5051793;28;19925;-59
2023/04/06 05:45:18;;;;;;;;;;;;;;;;;;5053126;28;19916;-60
2023/04/06 05:47:44;;;;;;;;;;;;;;;;;;5053048;28;20655;-58
2023/04/06 05:50:10;;;;;;;;;;;;;;;;;;5052024;28;19924;-60
2023/04/06 05:52:36;;;;;;;;;;;;;;;;;;5052839;28;19970;-61
2023/04/06 05:55:02;;;;;;;;;;;;;;;;;;5053172;28;20344;-61
2023/04/06 05:57:28;;;;;;;;;;;;;;;;;;5052252;28;19920;-61
2023/04/06 05:59:55;;;;;;;;;;;;;;;;;;5053013;28;19942;-61
2023/04/06 06:02:21;;;;;;;;;;;;;;;;;;5037965;28;19974;-59
2023/04/06 06:04:47;;;;;;;;;;;;;;;;;;5052254;28;20031;-59
2023/04/06 06:07:13;;;;;;;;;;;;;;;;;;5052775;28;20075;-59
2023/04/06 06:09:38;;;;;;;;;;;;;;;;;;5052522;28;19916;-58
2023/04/06 06:12:05;;;;;;;;;;;;;;;;;;5052055;28;19943;-59
2023/04/06 06:14:31;;;;;;;;;;;;;;;;;;5052930;28;19928;-59
2023/04/06 06:16:57;;;;;;;;;;;;;;;;;;5052596;28;19920;-59
2023/04/06 06:19:22;;;;;;;;;;;;;;;;;;5052128;28;19920;-59
2023/04/06 06:21:48;;;;;;;;;;;;;;;;;;5052159;28;19916;-60
2023/04/06 06:24:14;;;;;;;;;;;;;;;;;;5051939;28;19925;-60
2023/04/06 06:26:40;;;;;;;;;;;;;;;;;;5051867;28;19921;-60
2023/04/06 06:29:06;;;;;;;;;;;;;;;;;;5051726;28;19924;-61
2023/04/06 06:31:32;;;;;;;;;;;;;;;;;;5052245;28;19924;-60
2023/04/06 06:33:58;;;;;;;;;;;;;;;;;;5051848;28;19927;-61
2023/04/06 06:36:25;;;;;;;;;;;;;;;;;;5051803;28;19917;-60
2023/04/06 06:38:51;;;;;;;;;;;;;;;;;;5039140;28;20378;-60
2023/04/06 06:41:17;;;;;;;;;;;;;;;;;;5051076;28;19928;-59
2023/04/06 06:43:43;;;;;;;;;;;;;;;;;;5050819;28;19925;-58
2023/04/06 06:46:09;;;;;;;;;;;;;;;;;;5051097;28;19942;-61
2023/04/06 06:48:35;;;;;;;;;;;;;;;;;;5048848;28;20010;-60
2023/04/06 06:51:01;;;;;;;;;;;;;;;;;;5051061;28;19927;-60
2023/04/06 06:53:27;;;;;;;;;;;;;;;;;;5044660;28;19921;-59
2023/04/06 06:55:53;;;;;;;;;;;;;;;;;;5051273;28;19920;-61
2023/04/06 06:58:19;;;;;;;;;;;;;;;;;;5046044;28;19917;-60
2023/04/06 07:00:45;;;;;;;;;;;;;;;;;;5051407;28;19960;-60
2023/04/06 07:03:11;;;;;;;;;;;;;;;;;;5029035;28;20330;-61
2023/04/06 07:05:37;;;;;;;;;;;;;;;;;;5046158;28;20007;-61
2023/04/06 07:08:03;;;;;;;;;;;;;;;;;;5042488;28;19921;-60
2023/04/06 07:10:29;;;;;;;;;;;;;;;;;;5047444;28;19955;-60
2023/04/06 07:12:55;;;;;;;;;;;;;;;;;;5050953;28;19974;-59
2023/04/06 07:15:21;;;;;;;;;;;;;;;;;;5051539;28;19921;-60
2023/04/06 07:17:47;;;;;;;;;;;;;;;;;;5050954;28;20240;-58
2023/04/06 07:20:13;;;;;;;;;;;;;;;;;;5050301;28;20439;-59
2023/04/06 07:22:39;;;;;;;;;;;;;;;;;;5051133;28;20007;-61
2023/04/06 07:25:05;;;;;;;;;;;;;;;;;;5030066;28;19923;-61
2023/04/06 07:27:32;;;;;;;;;;;;;;;;;;5048608;28;19970;-62
2023/04/06 07:29:58;;;;;;;;;;;;;;;;;;5049533;28;19921;-61
2023/04/06 07:32:24;;;;;;;;;;;;;;;;;;5048341;28;20322;-60
2023/04/06 07:34:50;;;;;;;;;;;;;;;;;;5047184;28;20372;-60
2023/04/06 07:37:16;;;;;;;;;;;;;;;;;;5049931;28;20015;-59
2023/04/06 07:39:42;;;;;;;;;;;;;;;;;;5048011;28;19987;-60
2023/04/06 07:42:08;;;;;;;;;;;;;;;;;;5046838;28;19925;-60
2023/04/06 07:44:34;;;;;;;;;;;;;;;;;;5050769;28;19978;-59
2023/04/06 07:47:00;;;;;;;;;;;;;;;;;;5050474;28;19929;-59
2023/04/06 07:49:26;;;;;;;;;;;;;;;;;;5047622;28;19921;-60
2023/04/06 07:51:52;;;;;;;;;;;;;;;;;;5053691;28;20038;-61
2023/04/06 07:54:18;;;;;;;;;;;;;;;;;;5051640;28;19921;-60
2023/04/06 07:56:44;;;;;;;;;;;;;;;;;;5049171;28;20290;-61
2023/04/06 07:59:11;;;;;;;;;;;;;;;;;;5046260;28;20331;-61
2023/04/06 08:01:37;;;;;;;;;;;;;;;;;;5048352;28;19920;-60
2023/04/06 08:04:03;;;;;;;;;;;;;;;;;;5047780;28;20017;-60
2023/04/06 08:06:29;;;;;;;;;;;;;;;;;;5049051;28;20260;-61
2023/04/06 08:08:55;;;;;;;;;;;;;;;;;;5047700;28;19920;-60
2023/04/06 08:11:21;;;;;;;;;;;;;;;;;;5028674;28;19935;-61
2023/04/06 08:13:47;;;;;;;;;;;;;;;;;;5048360;28;19920;-60
2023/04/06 08:16:13;;;;;;;;;;;;;;;;;;5049627;28;19928;-61
2023/04/06 08:18:39;;;;;;;;;;;;;;;;;;5044001;28;19924;-60
2023/04/06 08:21:05;;;;;;;;;;;;;;;;;;5048717;28;19921;-60
2023/04/06 08:23:31;;;;;;;;;;;;;;;;;;5039024;28;20394;-62
2023/04/06 08:25:57;;;;;;;;;;;;;;;;;;5043463;28;20608;-61
2023/04/06 08:28:23;;;;;;;;;;;;;;;;;;5048062;28;19929;-61
2023/04/06 08:30:49;;;;;;;;;;;;;;;;;;5049081;28;19920;-59
2023/04/06 08:33:15;;;;;;;;;;;;;;;;;;5038969;28;19938;-60
2023/04/06 08:35:41;;;;;;;;;;;;;;;;;;5040763;28;19932;-60
2023/04/06 08:38:07;;;;;;;;;;;;;;;;;;5044491;28;19920;-61
2023/04/06 08:40:33;;;;;;;;;;;;;;;;;;5048635;28;19920;-60
2023/04/06 08:42:59;;;;;;;;;;;;;;;;;;5045044;28;19916;-59
2023/04/06 08:45:25;;;;;;;;;;;;;;;;;;5048719;28;19925;-59
2023/04/06 08:47:52;;;;;;;;;;;;;;;;;;5049083;28;19974;-59
2023/04/06 08:50:18;;;;;;;;;;;;;;;;;;5048966;28;19952;-59
2023/04/06 08:52:44;;;;;;;;;;;;;;;;;;5049087;28;19921;-61
2023/04/06 08:55:10;;;;;;;;;;;;;;;;;;5047256;28;19920;-59
2023/04/06 08:57:36;;;;;;;;;;;;;;;;;;5049167;28;19921;-60
2023/04/06 09:00:02;;;;;;;;;;;;;;;;;;5048892;28;19986;-59
2023/04/06 09:02:28;;;;;;;;;;;;;;;;;;5048352;28;19924;-60
2023/04/06 09:04:54;;;;;;;;;;;;;;;;;;5048947;28;19916;-62
2023/04/06 09:07:20;;;;;;;;;;;;;;;;;;5052051;28;19920;-62
2023/04/06 09:09:49;;;;;;;;;;;;;;;;;;5048008;28;20738;-62
2023/04/06 09:12:15;;;;;;;;;;;;;;;;;;5049522;28;19920;-62
2023/04/06 09:14:41;;;;;;;;;;;;;;;;;;5047972;28;19925;-60
2023/04/06 09:17:07;;;;;;;;;;;;;;;;;;5048275;28;19962;-59
2023/04/06 09:19:33;;;;;;;;;;;;;;;;;;5049609;28;19962;-61
2023/04/06 09:21:59;;;;;;;;;;;;;;;;;;5052037;28;19928;-60
2023/04/06 09:24:26;;;;;;;;;;;;;;;;;;5055867;28;19952;-61
2023/04/06 09:26:51;;;;;;;;;;;;;;;;;;5053045;28;19916;-59
2023/04/06 09:29:17;;;;;;;;;;;;;;;;;;5051213;28;19917;-59
2023/04/06 09:31:43;;;;;;;;;;;;;;;;;;5052261;28;19956;-59
2023/04/06 09:34:09;;;;;;;;;;;;;;;;;;5047056;28;19920;-58
2023/04/06 09:36:38;;;;;;;;;;;;;;;;;;5053527;28;20061;-59
2023/04/06 09:39:04;;;;;;;;;;;;;;;;;;5058182;28;19917;-59
2023/04/06 09:41:30;;;;;;;;;;;;;;;;;;5064558;28;19999;-60
2023/04/06 09:43:56;;;;;;;;;;;;;;;;;;5053769;28;20007;-60
2023/04/06 09:46:22;;;;;;;;;;;;;;;;;;5053338;28;20011;-59
2023/04/06 09:48:48;;;;;;;;;;;;;;;;;;5048796;28;19921;-60
2023/04/06 09:51:14;;;;;;;;;;;;;;;;;;5050971;28;19966;-60
2023/04/06 09:53:40;;;;;;;;;;;;;;;;;;5051521;28;20486;-60
2023/04/06 09:56:06;;;;;;;;;;;;;;;;;;5041582;28;19924;-60
2023/04/06 09:58:32;;;;;;;;;;;;;;;;;;5052278;28;20007;-61
2023/04/06 10:00:58;;;;;;;;;;;;;;;;;;5052365;28;19948;-61
2023/04/06 10:03:24;;;;;;;;;;;;;;;;;;5049129;28;19917;-60
2023/04/06 10:05:50;;;;;;;;;;;;;;;;;;5048324;28;19997;-59
2023/04/06 10:08:16;;;;;;;;;;;;;;;;;;5047908;28;19932;-60
2023/04/06 10:10:42;;;;;;;;;;;;;;;;;;5047364;28;19960;-60
2023/04/06 10:13:08;;;;;;;;;;;;;;;;;;5052209;28;20205;-60
2023/04/06 10:15:34;;;;;;;;;;;;;;;;;;5040347;28;20407;-61
2023/04/06 10:18:00;;;;;;;;;;;;;;;;;;5046507;28;19921;-60
2023/04/06 10:20:26;;;;;;;;;;;;;;;;;;5051871;28;19952;-60
2023/04/06 10:22:53;;;;;;;;;;;;;;;;;;5051074;28;19928;-60
2023/04/06 10:25:19;;;;;;;;;;;;;;;;;;5051384;28;20418;-60
2023/04/06 10:27:45;;;;;;;;;;;;;;;;;;5050392;28;19925;-60
2023/04/06 10:30:11;;;;;;;;;;;;;;;;;;5049589;28;19944;-60
2023/04/06 10:32:37;;;;;;;;;;;;;;;;;;5049735;28;19939;-61
2023/04/06 10:35:03;;;;;;;;;;;;;;;;;;5050681;28;19920;-60
2023/04/06 10:37:29;;;;;;;;;;;;;;;;;;5050543;28;19920;-61
2023/04/06 10:39:58;;;;;;;;;;;;;;;;;;5050769;28;19921;-60
2023/04/06 10:42:24;;;;;;;;;;;;;;;;;;5052124;28;20047;-60
2023/04/06 10:44:50;;;;;;;;;;;;;;;;;;5051824;28;19973;-60
2023/04/06 10:47:16;;;;;;;;;;;;;;;;;;5050196;28;19925;-61
2023/04/06 10:49:42;;;;;;;;;;;;;;;;;;5054719;28;20014;-61
2023/04/06 10:52:09;;;;;;;;;;;;;;;;;;5052131;28;19958;-60
2023/04/06 10:54:35;;;;;;;;;;;;;;;;;;5050402;28;20278;-61
2023/04/06 10:57:01;;;;;;;;;;;;;;;;;;5051772;28;20039;-60
2023/04/06 10:59:27;;;;;;;;;;;;;;;;;;5048362;28;19916;-61
2023/04/06 11:01:55;;;;;;;;;;;;;;;;;;5050776;28;19924;-61
2023/04/06 11:04:21;;;;;;;;;;;;;;;;;;5051085;28;19976;-61
2023/04/06 11:06:48;;;;;;;;;;;;;;;;;;5051466;28;19945;-60
2023/04/06 11:09:14;;;;;;;;;;;;;;;;;;5045868;28;20006;-60
2023/04/06 11:11:40;;;;;;;;;;;;;;;;;;5029971;28;19959;-61
2023/04/06 11:14:06;;;;;;;;;;;;;;;;;;5045716;28;20033;-61
2023/04/06 11:16:32;;;;;;;;;;;;;;;;;;5050391;28;20391;-60
2023/04/06 11:18:58;;;;;;;;;;;;;;;;;;5050781;28;20000;-61
2023/04/06 11:21:25;;;;;;;;;;;;;;;;;;5051604;28;20011;-61
2023/04/06 11:23:51;;;;;;;;;;;;;;;;;;5046460;28;19928;-61
2023/04/06 11:26:17;;;;;;;;;;;;;;;;;;5051199;28;19920;-61
2023/04/06 11:28:43;;;;;;;;;;;;;;;;;;5050938;28;19987;-61
2023/04/06 11:31:10;;;;;;;;;;;;;;;;;;5050468;28;19916;-61
2023/04/06 11:33:38;;;;;;;;;;;;;;;;;;5049657;28;19921;-61
2023/04/06 11:36:04;;;;;;;;;;;;;;;;;;5051185;28;20327;-61
2023/04/06 11:38:30;;;;;;;;;;;;;;;;;;5048488;28;19967;-60
2023/04/06 11:40:56;;;;;;;;;;;;;;;;;;5040658;28;19939;-61
2023/04/06 11:43:22;;;;;;;;;;;;;;;;;;5044505;28;20003;-60
2023/04/06 11:45:48;;;;;;;;;;;;;;;;;;5049889;28;19917;-59
2023/04/06 11:48:14;;;;;;;;;;;;;;;;;;5048976;28;19928;-59
2023/04/06 11:50:42;;;;;;;;;;;;;;;;;;5049703;28;20256;-60
2023/04/06 11:53:08;;;;;;;;;;;;;;;;;;5031366;28;19927;-60
2023/04/06 11:55:34;;;;;;;;;;;;;;;;;;5049905;28;20361;-60
2023/04/06 11:58:00;;;;;;;;;;;;;;;;;;5048261;28;19920;-61
2023/04/06 12:00:26;;;;;;;;;;;;;;;;;;5050029;28;19943;-59
2023/04/06 12:02:52;;;;;;;;;;;;;;;;;;5049827;28;19920;-59
2023/04/06 12:05:18;;;;;;;;;;;;;;;;;;5043456;28;20011;-58
2023/04/06 12:07:44;;;;;;;;;;;;;;;;;;5050466;28;19948;-57
2023/04/06 12:10:10;;;;;;;;;;;;;;;;;;5050762;28;19973;-57
2023/04/06 12:12:38;;;;;;;;;;;;;;;;;;5042094;28;19917;-57
2023/04/06 12:15:05;;;;;;;;;;;;;;;;;;5040501;28;20250;-57
2023/04/06 12:17:30;;;;;;;;;;;;;;;;;;5049586;28;19966;-58
2023/04/06 12:19:56;;;;;;;;;;;;;;;;;;5049213;28;20337;-58
2023/04/06 12:22:22;;;;;;;;;;;;;;;;;;5048494;28;19943;-58
2023/04/06 12:24:48;;;;;;;;;;;;;;;;;;5049288;28;19959;-58
2023/04/06 12:27:15;;;;;;;;;;;;;;;;;;5048463;28;19927;-58
2023/04/06 12:29:41;;;;;;;;;;;;;;;;;;5044499;28;19925;-59
2023/04/06 12:32:08;;;;;;;;;;;;;;;;;;5047938;28;20041;-58
2023/04/06 12:34:34;;;;;;;;;;;;;;;;;;5053891;28;19927;-58
2023/04/06 12:37:00;;;;;;;;;;;;;;;;;;5045807;28;19920;-58
2023/04/06 12:39:26;;;;;;;;;;;;;;;;;;5047763;28;20430;-58
2023/04/06 12:41:52;;;;;;;;;;;;;;;;;;5048465;28;19921;-58
2023/04/06 12:44:18;;;;;;;;;;;;;;;;;;5030488;28;19920;-57
2023/04/06 12:46:45;;;;;;;;;;;;;;;;;;5047940;28;19948;-61
2023/04/06 12:49:11;;;;;;;;;;;;;;;;;;5043800;28;20279;-60
2023/04/06 12:51:37;;;;;;;;;;;;;;;;;;5042998;28;19940;-60
2023/04/06 12:54:02;;;;;;;;;;;;;;;;;;5048468;28;19921;-59
2023/04/06 12:56:28;;;;;;;;;;;;;;;;;;5054304;28;19944;-59
2023/04/06 12:58:55;;;;;;;;;;;;;;;;;;5049287;28;19925;-59
2023/04/06 13:01:21;;;;;;;;;;;;;;;;;;5052179;28;19920;-59
2023/04/06 13:03:47;;;;;;;;;;;;;;;;;;5052537;28;20620;-58
2023/04/06 13:06:14;;;;;;;;;;;;;;;;;;5050602;28;19963;-58
2023/04/06 13:08:40;;;;;;;;;;;;;;;;;;5051381;28;19924;-58
2023/04/06 13:11:09;;;;;;;;;;;;;;;;;;5052728;28;19963;-58
2023/04/06 13:13:35;;;;;;;;;;;;;;;;;;5052798;28;19954;-59
2023/04/06 13:16:02;;;;;;;;;;;;;;;;;;5052265;28;20700;-58
2023/04/06 13:18:28;;;;;;;;;;;;;;;;;;5050249;28;19917;-60
2023/04/06 13:20:55;;;;;;;;;;;;;;;;;;5052107;28;19974;-60
2023/04/06 13:23:21;;;;;;;;;;;;;;;;;;5045172;28;19921;-59
2023/04/06 13:25:47;;;;;;;;;;;;;;;;;;5040200;28;19924;-59
2023/04/06 13:28:13;;;;;;;;;;;;;;;;;;5044266;28;20028;-59
2023/04/06 13:30:39;;;;;;;;;;;;;;;;;;5051970;28;19923;-57
2023/04/06 13:33:06;;;;;;;;;;;;;;;;;;5055895;28;19920;-59
2023/04/06 13:35:32;;;;;;;;;;;;;;;;;;5052750;28;19981;-60
2023/04/06 13:37:58;;;;;;;;;;;;;;;;;;5050537;28;19920;-60
2023/04/06 13:40:24;;;;;;;;;;;;;;;;;;5053254;28;19987;-60
2023/04/06 13:42:50;;;;;;;;;;;;;;;;;;5053200;28;19927;-60
2023/04/06 13:45:16;;;;;;;;;;;;;;;;;;5052690;28;20003;-59
2023/04/06 13:47:42;;;;;;;;;;;;;;;;;;5053050;28;20350;-58
2023/04/06 13:50:08;;;;;;;;;;;;;;;;;;5053136;28;19928;-58
2023/04/06 13:52:35;;;;;;;;;;;;;;;;;;5052801;28;19927;-57
2023/04/06 13:55:02;;;;;;;;;;;;;;;;;;5053264;28;19920;-57
2023/04/06 13:57:29;;;;;;;;;;;;;;;;;;5053131;28;19916;-57
2023/04/06 13:59:55;;;;;;;;;;;;;;;;;;5052744;28;19921;-57
2023/04/06 14:02:26;;;;;;;;;;;;;;;;;;5053293;28;19923;-57
2023/04/06 14:04:52;;;;;;;;;;;;;;;;;;5051591;28;19917;-58
2023/04/06 14:07:18;;;;;;;;;;;;;;;;;;5052356;28;19927;-57
2023/04/06 14:09:44;;;;;;;;;;;;;;;;;;5053076;28;20004;-57
2023/04/06 14:12:11;;;;;;;;;;;;;;;;;;5053152;28;19967;-57
2023/04/06 14:14:37;;;;;;;;;;;;;;;;;;5052408;28;19920;-57
2023/04/06 14:17:03;;;;;;;;;;;;;;;;;;5052793;28;19930;-55
2023/04/06 14:19:29;;;;;;;;;;;;;;;;;;5053087;28;19924;-58
2023/04/06 14:21:57;;;;;;;;;;;;;;;;;;5052483;28;19916;-58
2023/04/06 14:24:23;;;;;;;;;;;;;;;;;;5052791;28;19924;-58
2023/04/06 14:26:49;;;;;;;;;;;;;;;;;;5052743;28;20366;-57
2023/04/06 14:29:16;;;;;;;;;;;;;;;;;;5034317;28;19927;-56
2023/04/06 14:31:42;;;;;;;;;;;;;;;;;;5052619;28;19966;-57
2023/04/06 14:34:08;;;;;;;;;;;;;;;;;;5052620;28;19916;-57
2023/04/06 14:36:38;;;;;;;;;;;;;;;;;;5051879;28;19931;-56
2023/04/06 14:39:04;;;;;;;;;;;;;;;;;;5051910;28;20335;-57
2023/04/06 14:41:31;;;;;;;;;;;;;;;;;;5034589;28;20343;-58
2023/04/06 14:43:56;;;;;;;;;;;;;;;;;;5051917;28;19917;-58
2023/04/06 14:46:22;;;;;;;;;;;;;;;;;;5052388;28;19917;-57
2023/04/06 14:48:48;;;;;;;;;;;;;;;;;;5052360;28;19931;-57
2023/04/06 14:51:14;;;;;;;;;;;;;;;;;;5051768;28;19971;-55
2023/04/06 14:53:40;;;;;;;;;;;;;;;;;;5052290;28;20402;-56
2023/04/06 14:56:06;;;;;;;;;;;;;;;;;;5051877;28;19916;-57
2023/04/06 14:58:32;;;;;;;;;;;;;;;;;;5051558;28;19920;-58
2023/04/06 15:00:58;;;;;;;;;;;;;;;;;;5052169;28;19916;-58
2023/04/06 15:03:27;;;;;;;;;;;;;;;;;;5052149;28;20302;-57
2023/04/06 15:05:53;;;;;;;;;;;;;;;;;;5051288;28;19925;-57
2023/04/06 15:08:22;;;;;;;;;;;;;;;;;;5052198;28;20019;-58
2023/04/06 15:10:48;;;;;;;;;;;;;;;;;;5051950;28;19923;-57
2023/04/06 15:13:14;;;;;;;;;;;;;;;;;;5051505;28;20351;-57
2023/04/06 15:15:40;;;;;;;;;;;;;;;;;;5051503;28;20015;-57
2023/04/06 15:18:06;;;;;;;;;;;;;;;;;;5051848;28;20011;-57
2023/04/06 15:20:32;;;;;;;;;;;;;;;;;;5051240;28;20266;-58
2023/04/06 15:22:58;;;;;;;;;;;;;;;;;;5051561;28;20012;-58
2023/04/06 15:25:24;;;;;;;;;;;;;;;;;;5051418;28;19921;-57
2023/04/06 15:27:50;;;;;;;;;;;;;;;;;;5051155;28;19925;-57
2023/04/06 15:30:16;;;;;;;;;;;;;;;;;;5051549;28;19916;-55
2023/04/06 15:32:42;;;;;;;;;;;;;;;;;;5051432;28;19916;-56
2023/04/06 15:35:08;;;;;;;;;;;;;;;;;;5050872;28;19920;-57
2023/04/06 15:37:34;;;;;;;;;;;;;;;;;;5051236;28;19974;-57
2023/04/06 15:40:00;;;;;;;;;;;;;;;;;;5051256;28;19917;-57
2023/04/06 15:42:26;;;;;;;;;;;;;;;;;;5033075;28;19982;-57
2023/04/06 15:44:52;;;;;;;;;;;;;;;;;;5051264;28;19978;-57
2023/04/06 15:47:18;;;;;;;;;;;;;;;;;;5051340;28;19943;-57
2023/04/06 15:49:44;;;;;;;;;;;;;;;;;;5050177;28;19960;-56
2023/04/06 15:52:10;;;;;;;;;;;;;;;;;;5051228;28;20040;-57
2023/04/06 15:54:39;;;;;;;;;;;;;;;;;;5051053;28;20032;-56
2023/04/06 15:57:05;;;;;;;;;;;;;;;;;;5050689;28;20401;-57
2023/04/06 15:59:31;;;;;;;;;;;;;;;;;;5051078;28;19916;-57
2023/04/06 16:02:00;;;;;;;;;;;;;;;;;;5051322;28;19959;-57
2023/04/06 16:04:26;;;;;;;;;;;;;;;;;;5050226;28;19979;-57
2023/04/06 16:06:52;;;;;;;;;;;;;;;;;;5051161;28;19948;-57
2023/04/06 16:09:17;;;;;;;;;;;;;;;;;;5051147;28;19932;-57
2023/04/06 16:11:44;;;;;;;;;;;;;;;;;;5050503;28;19932;-57
2023/04/06 16:14:10;;;;;;;;;;;;;;;;;;5051134;28;19971;-57
2023/04/06 16:16:36;;;;;;;;;;;;;;;;;;5051075;28;20358;-57
2023/04/06 16:19:02;;;;;;;;;;;;;;;;;;5050496;28;19946;-57
2023/04/06 16:21:28;;;;;;;;;;;;;;;;;;5050898;28;20422;-57
2023/04/06 16:23:54;;;;;;;;;;;;;;;;;;5050498;28;20378;-57
2023/04/06 16:26:20;;;;;;;;;;;;;;;;;;5032474;28;19999;-57
2023/04/06 16:28:46;;;;;;;;;;;;;;;;;;5053971;28;19974;-56
2023/04/06 16:31:12;;;;;;;;;;;;;;;;;;5054634;28;20403;-56
2023/04/06 16:33:38;;;;;;;;;;;;;;;;;;5054387;28;19916;-57
2023/04/06 16:36:04;;;;;;;;;;;;;;;;;;5054879;28;19974;-56
2023/04/06 16:38:34;;;;;;;;;;;;;;;;;;5054959;28;19924;-57